sensor_id;sensor_type;location;lat;lon;timestamp;temperature;humidity
11532;DHT22;5822;51.000;5.874;2023-08-20T00:00:27;22.10;99.90
11532;DHT22;5822;51.000;5.874;2023-08-20T00:03:17;22.10;99.90
11532;DHT22;5822;51.000;5.874;2023-08-20T00:05:42;22.10;99.90
11532;DHT22;5822;51.000;5.874;2023-08-20T00:08:08;22.00;99.90
11532;DHT22;5822;51.000;5.874;2023-08-20T00:10:34;22.00;99.90
11532;DHT22;5822;51.000;5.874;2023-08-20T00:13:00;22.00;99.90
11532;DHT22;5822;51.000;5.874;2023-08-20T00:15:25;22.00;99.90
11532;DHT22;5822;51.000;5.874;2023-08-20T00:17:54;22.00;99.90
11532;DHT22;5822;51.000;5.874;2023-08-20T00:20:21;22.00;99.90
11532;DHT22;5822;51.000;5.874;2023-08-20T00:22:47;22.10;99.90
11532;DHT22;5822;51.000;5.874;2023-08-20T00:25:14;22.10;99.90
11532;DHT22;5822;51.000;5.874;2023-08-20T00:27:41;22.10;99.90
11532;DHT22;5822;51.000;5.874;2023-08-20T00:30:07;22.10;99.90
11532;DHT22;5822;51.000;5.874;2023-08-20T00:32:32;22.10;99.90
11532;DHT22;5822;51.000;5.874;2023-08-20T00:34:58;22.00;99.90
11532;DHT22;5822;51.000;5.874;2023-08-20T00:37:25;21.90;99.90
11532;DHT22;5822;51.000;5.874;2023-08-20T00:39:51;21.90;99.90
11532;DHT22;5822;51.000;5.874;2023-08-20T00:42:17;21.90;99.90
11532;DHT22;5822;51.000;5.874;2023-08-20T00:44:42;21.90;99.90
11532;DHT22;5822;51.000;5.874;2023-08-20T00:47:10;21.90;99.90
11532;DHT22;5822;51.000;5.874;2023-08-20T00:49:36;21.90;99.90
11532;DHT22;5822;51.000;5.874;2023-08-20T00:52:03;21.90;99.90
11532;DHT22;5822;51.000;5.874;2023-08-20T00:54:29;21.90;99.90
11532;DHT22;5822;51.000;5.874;2023-08-20T00:56:57;21.90;99.90
11532;DHT22;5822;51.000;5.874;2023-08-20T00:59:23;21.90;99.90
11532;DHT22;5822;51.000;5.874;2023-08-20T01:01:49;22.00;99.90
11532;DHT22;5822;51.000;5.874;2023-08-20T01:04:15;22.00;99.90
11532;DHT22;5822;51.000;5.874;2023-08-20T01:09:43;21.90;99.90
11532;DHT22;5822;51.000;5.874;2023-08-20T01:12:14;21.90;99.90
11532;DHT22;5822;51.000;5.874;2023-08-20T01:14:41;21.90;99.90
11532;DHT22;5822;51.000;5.874;2023-08-20T01:17:07;21.90;99.90
11532;DHT22;5822;51.000;5.874;2023-08-20T01:19:33;21.90;99.90
11532;DHT22;5822;51.000;5.874;2023-08-20T01:29:55;21.90;99.90
11532;DHT22;5822;51.000;5.874;2023-08-20T01:32:22;22.00;99.90
11532;DHT22;5822;51.000;5.874;2023-08-20T01:34:48;22.00;99.90
11532;DHT22;5822;51.000;5.874;2023-08-20T01:37:14;21.90;99.90
11532;DHT22;5822;51.000;5.874;2023-08-20T01:39:39;21.90;99.90
11532;DHT22;5822;51.000;5.874;2023-08-20T01:42:05;21.90;99.90
11532;DHT22;5822;51.000;5.874;2023-08-20T01:44:31;21.90;99.90
11532;DHT22;5822;51.000;5.874;2023-08-20T01:46:57;21.90;99.90
11532;DHT22;5822;51.000;5.874;2023-08-20T01:49:23;21.80;99.90
11532;DHT22;5822;51.000;5.874;2023-08-20T01:51:49;21.80;99.90
11532;DHT22;5822;51.000;5.874;2023-08-20T01:54:14;21.80;99.90
11532;DHT22;5822;51.000;5.874;2023-08-20T01:56:40;21.80;99.90
11532;DHT22;5822;51.000;5.874;2023-08-20T01:59:06;21.90;99.90
11532;DHT22;5822;51.000;5.874;2023-08-20T02:01:31;21.90;99.90
11532;DHT22;5822;51.000;5.874;2023-08-20T02:03:57;21.90;99.90
11532;DHT22;5822;51.000;5.874;2023-08-20T02:06:23;21.90;99.90
11532;DHT22;5822;51.000;5.874;2023-08-20T02:08:48;21.90;99.90
11532;DHT22;5822;51.000;5.874;2023-08-20T02:11:14;21.90;99.90
11532;DHT22;5822;51.000;5.874;2023-08-20T02:13:39;21.90;99.90
11532;DHT22;5822;51.000;5.874;2023-08-20T02:16:05;21.90;99.90
11532;DHT22;5822;51.000;5.874;2023-08-20T02:18:32;21.90;99.90
11532;DHT22;5822;51.000;5.874;2023-08-20T02:20:58;21.90;99.90
11532;DHT22;5822;51.000;5.874;2023-08-20T02:23:23;21.80;99.90
11532;DHT22;5822;51.000;5.874;2023-08-20T02:25:49;21.80;99.90
11532;DHT22;5822;51.000;5.874;2023-08-20T02:28:15;21.90;99.90
11532;DHT22;5822;51.000;5.874;2023-08-20T02:30:44;21.80;99.90
11532;DHT22;5822;51.000;5.874;2023-08-20T02:33:10;21.80;99.90
11532;DHT22;5822;51.000;5.874;2023-08-20T02:35:39;21.80;99.90
11532;DHT22;5822;51.000;5.874;2023-08-20T02:38:06;21.80;99.90
11532;DHT22;5822;51.000;5.874;2023-08-20T02:40:32;21.80;99.90
11532;DHT22;5822;51.000;5.874;2023-08-20T02:42:58;21.80;99.90
11532;DHT22;5822;51.000;5.874;2023-08-20T02:45:23;21.80;99.90
11532;DHT22;5822;51.000;5.874;2023-08-20T02:47:49;21.80;99.90
11532;DHT22;5822;51.000;5.874;2023-08-20T02:50:15;21.80;99.90
11532;DHT22;5822;51.000;5.874;2023-08-20T02:52:44;21.80;99.90
11532;DHT22;5822;51.000;5.874;2023-08-20T02:55:10;21.70;99.90
11532;DHT22;5822;51.000;5.874;2023-08-20T02:57:36;21.80;99.90
11532;DHT22;5822;51.000;5.874;2023-08-20T03:00:02;21.80;99.90
11532;DHT22;5822;51.000;5.874;2023-08-20T03:02:28;21.80;99.90
11532;DHT22;5822;51.000;5.874;2023-08-20T03:04:53;21.80;99.90
11532;DHT22;5822;51.000;5.874;2023-08-20T03:07:21;21.80;99.90
11532;DHT22;5822;51.000;5.874;2023-08-20T03:09:48;21.80;99.90
11532;DHT22;5822;51.000;5.874;2023-08-20T03:12:13;21.70;99.90
11532;DHT22;5822;51.000;5.874;2023-08-20T03:14:39;21.70;99.90
11532;DHT22;5822;51.000;5.874;2023-08-20T03:17:05;21.60;99.90
11532;DHT22;5822;51.000;5.874;2023-08-20T03:19:33;21.60;99.90
11532;DHT22;5822;51.000;5.874;2023-08-20T03:22:00;21.60;99.90
11532;DHT22;5822;51.000;5.874;2023-08-20T03:24:26;21.60;99.90
11532;DHT22;5822;51.000;5.874;2023-08-20T03:26:51;21.60;99.90
11532;DHT22;5822;51.000;5.874;2023-08-20T03:29:17;21.60;99.90
11532;DHT22;5822;51.000;5.874;2023-08-20T03:31:42;21.50;99.90
11532;DHT22;5822;51.000;5.874;2023-08-20T03:34:08;21.50;99.90
11532;DHT22;5822;51.000;5.874;2023-08-20T03:36:35;21.50;99.90
11532;DHT22;5822;51.000;5.874;2023-08-20T03:39:00;21.50;99.90
11532;DHT22;5822;51.000;5.874;2023-08-20T03:41:26;21.50;99.90
11532;DHT22;5822;51.000;5.874;2023-08-20T03:43:51;21.50;99.90
11532;DHT22;5822;51.000;5.874;2023-08-20T03:46:17;21.50;99.90
11532;DHT22;5822;51.000;5.874;2023-08-20T03:48:43;21.50;99.90
11532;DHT22;5822;51.000;5.874;2023-08-20T03:51:08;21.50;99.90
11532;DHT22;5822;51.000;5.874;2023-08-20T03:53:34;21.40;99.90
11532;DHT22;5822;51.000;5.874;2023-08-20T03:56:00;21.30;99.90
11532;DHT22;5822;51.000;5.874;2023-08-20T03:58:25;21.30;99.90
11532;DHT22;5822;51.000;5.874;2023-08-20T04:00:51;21.30;99.90
11532;DHT22;5822;51.000;5.874;2023-08-20T04:03:17;21.30;99.90
11532;DHT22;5822;51.000;5.874;2023-08-20T04:05:45;21.30;99.90
11532;DHT22;5822;51.000;5.874;2023-08-20T04:08:10;21.30;99.90
11532;DHT22;5822;51.000;5.874;2023-08-20T04:10:43;21.30;99.90
11532;DHT22;5822;51.000;5.874;2023-08-20T04:13:10;21.30;99.90
11532;DHT22;5822;51.000;5.874;2023-08-20T04:15:36;21.30;99.90
11532;DHT22;5822;51.000;5.874;2023-08-20T04:18:01;21.20;99.90
11532;DHT22;5822;51.000;5.874;2023-08-20T04:20:27;21.20;99.90
11532;DHT22;5822;51.000;5.874;2023-08-20T04:22:53;21.10;99.90
11532;DHT22;5822;51.000;5.874;2023-08-20T04:25:18;21.20;99.90
11532;DHT22;5822;51.000;5.874;2023-08-20T04:27:44;21.20;99.90
11532;DHT22;5822;51.000;5.874;2023-08-20T04:30:10;21.30;99.90
11532;DHT22;5822;51.000;5.874;2023-08-20T04:32:36;21.30;99.90
11532;DHT22;5822;51.000;5.874;2023-08-20T04:35:01;21.30;99.90
11532;DHT22;5822;51.000;5.874;2023-08-20T04:37:27;21.20;99.90
11532;DHT22;5822;51.000;5.874;2023-08-20T04:39:53;21.20;99.90
11532;DHT22;5822;51.000;5.874;2023-08-20T04:42:18;21.10;99.90
11532;DHT22;5822;51.000;5.874;2023-08-20T04:44:44;21.10;99.90
11532;DHT22;5822;51.000;5.874;2023-08-20T04:47:13;21.00;99.90
11532;DHT22;5822;51.000;5.874;2023-08-20T04:49:39;21.00;99.90
11532;DHT22;5822;51.000;5.874;2023-08-20T04:52:04;21.00;99.90
11532;DHT22;5822;51.000;5.874;2023-08-20T04:54:30;21.00;99.90
11532;DHT22;5822;51.000;5.874;2023-08-20T04:56:56;21.00;99.90
11532;DHT22;5822;51.000;5.874;2023-08-20T04:59:21;21.00;99.90
11532;DHT22;5822;51.000;5.874;2023-08-20T05:01:47;21.00;99.90
11532;DHT22;5822;51.000;5.874;2023-08-20T05:04:13;21.00;99.90
11532;DHT22;5822;51.000;5.874;2023-08-20T05:06:39;21.10;99.90
11532;DHT22;5822;51.000;5.874;2023-08-20T05:09:04;21.10;99.90
11532;DHT22;5822;51.000;5.874;2023-08-20T05:11:30;21.10;99.90
11532;DHT22;5822;51.000;5.874;2023-08-20T05:13:58;21.10;99.90
11532;DHT22;5822;51.000;5.874;2023-08-20T05:16:23;21.00;99.90
11532;DHT22;5822;51.000;5.874;2023-08-20T05:18:49;21.00;99.90
11532;DHT22;5822;51.000;5.874;2023-08-20T05:21:15;21.10;99.90
11532;DHT22;5822;51.000;5.874;2023-08-20T05:23:40;21.20;99.90
11532;DHT22;5822;51.000;5.874;2023-08-20T05:26:09;21.20;99.90
11532;DHT22;5822;51.000;5.874;2023-08-20T05:28:35;21.20;99.90
11532;DHT22;5822;51.000;5.874;2023-08-20T05:31:00;21.20;99.90
11532;DHT22;5822;51.000;5.874;2023-08-20T05:33:26;21.20;99.90
11532;DHT22;5822;51.000;5.874;2023-08-20T05:35:52;21.30;99.90
11532;DHT22;5822;51.000;5.874;2023-08-20T05:38:18;21.30;99.90
11532;DHT22;5822;51.000;5.874;2023-08-20T05:40:43;21.20;99.90
11532;DHT22;5822;51.000;5.874;2023-08-20T05:43:09;21.20;99.90
11532;DHT22;5822;51.000;5.874;2023-08-20T05:45:35;21.30;99.90
11532;DHT22;5822;51.000;5.874;2023-08-20T05:48:01;21.30;99.90
11532;DHT22;5822;51.000;5.874;2023-08-20T05:50:27;21.30;99.90
11532;DHT22;5822;51.000;5.874;2023-08-20T05:52:52;21.30;99.90
11532;DHT22;5822;51.000;5.874;2023-08-20T05:55:18;21.30;99.90
11532;DHT22;5822;51.000;5.874;2023-08-20T05:57:44;21.30;99.90
11532;DHT22;5822;51.000;5.874;2023-08-20T06:00:10;21.40;99.90
11532;DHT22;5822;51.000;5.874;2023-08-20T06:02:37;21.40;99.90
11532;DHT22;5822;51.000;5.874;2023-08-20T06:05:03;21.40;99.90
11532;DHT22;5822;51.000;5.874;2023-08-20T06:07:32;21.40;99.90
11532;DHT22;5822;51.000;5.874;2023-08-20T06:09:57;21.40;99.90
11532;DHT22;5822;51.000;5.874;2023-08-20T06:12:23;21.40;99.90
11532;DHT22;5822;51.000;5.874;2023-08-20T06:14:49;21.40;99.90
11532;DHT22;5822;51.000;5.874;2023-08-20T06:17:15;21.50;99.90
11532;DHT22;5822;51.000;5.874;2023-08-20T06:19:41;21.50;99.90
11532;DHT22;5822;51.000;5.874;2023-08-20T06:22:07;21.50;99.90
11532;DHT22;5822;51.000;5.874;2023-08-20T06:24:32;21.60;99.90
11532;DHT22;5822;51.000;5.874;2023-08-20T06:26:58;21.60;99.90
11532;DHT22;5822;51.000;5.874;2023-08-20T06:29:24;21.60;99.90
11532;DHT22;5822;51.000;5.874;2023-08-20T06:31:49;21.60;99.90
11532;DHT22;5822;51.000;5.874;2023-08-20T06:34:16;21.70;99.90
11532;DHT22;5822;51.000;5.874;2023-08-20T06:36:42;21.70;99.90
11532;DHT22;5822;51.000;5.874;2023-08-20T06:39:08;21.70;99.90
11532;DHT22;5822;51.000;5.874;2023-08-20T06:41:34;21.70;99.90
11532;DHT22;5822;51.000;5.874;2023-08-20T06:44:01;21.70;99.90
11532;DHT22;5822;51.000;5.874;2023-08-20T06:46:26;21.80;99.90
11532;DHT22;5822;51.000;5.874;2023-08-20T06:48:52;21.80;99.90
11532;DHT22;5822;51.000;5.874;2023-08-20T06:51:22;21.80;99.90
11532;DHT22;5822;51.000;5.874;2023-08-20T06:53:48;21.90;99.90
11532;DHT22;5822;51.000;5.874;2023-08-20T06:56:14;21.90;99.90
11532;DHT22;5822;51.000;5.874;2023-08-20T06:58:41;21.90;99.90
11532;DHT22;5822;51.000;5.874;2023-08-20T07:01:07;21.90;99.90
11532;DHT22;5822;51.000;5.874;2023-08-20T07:03:41;21.90;99.90
11532;DHT22;5822;51.000;5.874;2023-08-20T07:06:08;21.90;99.90
11532;DHT22;5822;51.000;5.874;2023-08-20T07:08:39;22.00;99.90
11532;DHT22;5822;51.000;5.874;2023-08-20T07:11:06;22.00;99.90
11532;DHT22;5822;51.000;5.874;2023-08-20T07:13:32;22.00;99.90
11532;DHT22;5822;51.000;5.874;2023-08-20T07:15:57;22.00;99.90
11532;DHT22;5822;51.000;5.874;2023-08-20T07:18:23;22.00;99.90
11532;DHT22;5822;51.000;5.874;2023-08-20T07:20:50;22.10;99.90
11532;DHT22;5822;51.000;5.874;2023-08-20T07:23:16;22.00;99.90
11532;DHT22;5822;51.000;5.874;2023-08-20T07:25:42;22.10;99.90
11532;DHT22;5822;51.000;5.874;2023-08-20T07:28:10;22.10;99.90
11532;DHT22;5822;51.000;5.874;2023-08-20T07:30:36;22.10;99.90
11532;DHT22;5822;51.000;5.874;2023-08-20T07:33:03;22.10;99.90
11532;DHT22;5822;51.000;5.874;2023-08-20T07:35:29;22.10;99.90
11532;DHT22;5822;51.000;5.874;2023-08-20T07:37:54;22.20;99.90
11532;DHT22;5822;51.000;5.874;2023-08-20T07:40:20;22.20;99.90
11532;DHT22;5822;51.000;5.874;2023-08-20T07:42:46;22.20;99.90
11532;DHT22;5822;51.000;5.874;2023-08-20T07:45:12;22.20;99.90
11532;DHT22;5822;51.000;5.874;2023-08-20T07:47:39;22.20;99.90
11532;DHT22;5822;51.000;5.874;2023-08-20T07:50:05;22.20;99.90
11532;DHT22;5822;51.000;5.874;2023-08-20T07:52:32;22.30;99.90
11532;DHT22;5822;51.000;5.874;2023-08-20T07:54:58;22.30;99.90
11532;DHT22;5822;51.000;5.874;2023-08-20T07:57:24;22.30;99.90
11532;DHT22;5822;51.000;5.874;2023-08-20T07:59:50;22.30;99.90
11532;DHT22;5822;51.000;5.874;2023-08-20T08:02:16;22.30;99.90
11532;DHT22;5822;51.000;5.874;2023-08-20T08:04:42;22.30;99.90
11532;DHT22;5822;51.000;5.874;2023-08-20T08:07:09;22.30;99.90
11532;DHT22;5822;51.000;5.874;2023-08-20T08:09:35;22.40;99.90
11532;DHT22;5822;51.000;5.874;2023-08-20T08:12:01;22.40;99.90
11532;DHT22;5822;51.000;5.874;2023-08-20T08:14:27;22.40;99.90
11532;DHT22;5822;51.000;5.874;2023-08-20T08:16:53;22.40;99.90
11532;DHT22;5822;51.000;5.874;2023-08-20T08:19:19;22.40;99.90
11532;DHT22;5822;51.000;5.874;2023-08-20T08:21:46;22.40;99.90
11532;DHT22;5822;51.000;5.874;2023-08-20T08:24:12;22.40;99.90
11532;DHT22;5822;51.000;5.874;2023-08-20T08:26:38;22.50;99.90
11532;DHT22;5822;51.000;5.874;2023-08-20T08:29:05;22.50;99.90
11532;DHT22;5822;51.000;5.874;2023-08-20T08:31:31;22.50;99.90
11532;DHT22;5822;51.000;5.874;2023-08-20T08:33:57;22.50;99.90
11532;DHT22;5822;51.000;5.874;2023-08-20T08:36:23;22.50;99.90
11532;DHT22;5822;51.000;5.874;2023-08-20T08:38:53;22.50;99.90
11532;DHT22;5822;51.000;5.874;2023-08-20T08:41:22;22.50;99.90
11532;DHT22;5822;51.000;5.874;2023-08-20T08:43:49;22.50;99.90
11532;DHT22;5822;51.000;5.874;2023-08-20T08:46:16;22.50;99.90
11532;DHT22;5822;51.000;5.874;2023-08-20T08:48:45;22.60;99.90
11532;DHT22;5822;51.000;5.874;2023-08-20T08:51:12;22.60;99.90
11532;DHT22;5822;51.000;5.874;2023-08-20T08:53:38;22.60;99.90
11532;DHT22;5822;51.000;5.874;2023-08-20T08:56:04;22.60;99.90
11532;DHT22;5822;51.000;5.874;2023-08-20T08:58:31;22.60;99.90
11532;DHT22;5822;51.000;5.874;2023-08-20T09:00:57;22.60;99.90
11532;DHT22;5822;51.000;5.874;2023-08-20T09:03:23;22.70;99.90
11532;DHT22;5822;51.000;5.874;2023-08-20T09:06:00;22.60;99.90
11532;DHT22;5822;51.000;5.874;2023-08-20T09:08:29;22.70;99.90
11532;DHT22;5822;51.000;5.874;2023-08-20T09:10:56;22.70;99.90
11532;DHT22;5822;51.000;5.874;2023-08-20T09:13:33;22.70;99.90
11532;DHT22;5822;51.000;5.874;2023-08-20T09:15:59;22.70;99.90
11532;DHT22;5822;51.000;5.874;2023-08-20T09:18:28;22.80;99.90
11532;DHT22;5822;51.000;5.874;2023-08-20T09:20:54;22.90;99.90
11532;DHT22;5822;51.000;5.874;2023-08-20T09:23:20;22.90;99.90
11532;DHT22;5822;51.000;5.874;2023-08-20T09:25:45;22.90;99.90
11532;DHT22;5822;51.000;5.874;2023-08-20T09:28:11;23.00;99.90
11532;DHT22;5822;51.000;5.874;2023-08-20T09:30:37;23.10;99.90
11532;DHT22;5822;51.000;5.874;2023-08-20T09:33:10;23.10;99.90
11532;DHT22;5822;51.000;5.874;2023-08-20T09:35:36;23.20;99.90
11532;DHT22;5822;51.000;5.874;2023-08-20T09:38:03;23.20;99.90
11532;DHT22;5822;51.000;5.874;2023-08-20T09:40:29;23.20;99.90
11532;DHT22;5822;51.000;5.874;2023-08-20T09:42:56;23.20;99.90
11532;DHT22;5822;51.000;5.874;2023-08-20T09:45:24;23.30;99.90
11532;DHT22;5822;51.000;5.874;2023-08-20T09:47:55;23.20;99.90
11532;DHT22;5822;51.000;5.874;2023-08-20T09:50:22;23.20;99.90
11532;DHT22;5822;51.000;5.874;2023-08-20T09:52:58;23.20;99.90
11532;DHT22;5822;51.000;5.874;2023-08-20T09:55:32;23.20;99.90
11532;DHT22;5822;51.000;5.874;2023-08-20T09:58:01;23.30;99.90
11532;DHT22;5822;51.000;5.874;2023-08-20T10:00:27;23.40;99.90
11532;DHT22;5822;51.000;5.874;2023-08-20T10:02:54;23.40;99.90
11532;DHT22;5822;51.000;5.874;2023-08-20T10:05:20;23.30;99.90
11532;DHT22;5822;51.000;5.874;2023-08-20T10:07:47;23.30;99.90
11532;DHT22;5822;51.000;5.874;2023-08-20T10:10:13;23.40;99.90
11532;DHT22;5822;51.000;5.874;2023-08-20T10:12:40;23.50;99.90
11532;DHT22;5822;51.000;5.874;2023-08-20T10:15:08;23.50;99.90
11532;DHT22;5822;51.000;5.874;2023-08-20T10:17:35;23.50;99.90
11532;DHT22;5822;51.000;5.874;2023-08-20T10:20:03;23.50;99.90
11532;DHT22;5822;51.000;5.874;2023-08-20T10:22:50;23.50;99.90
11532;DHT22;5822;51.000;5.874;2023-08-20T10:25:23;23.60;99.90
11532;DHT22;5822;51.000;5.874;2023-08-20T10:27:50;23.60;99.90
11532;DHT22;5822;51.000;5.874;2023-08-20T10:30:34;23.60;99.90
11532;DHT22;5822;51.000;5.874;2023-08-20T10:32:59;23.60;99.90
11532;DHT22;5822;51.000;5.874;2023-08-20T10:43:29;23.70;99.90
11532;DHT22;5822;51.000;5.874;2023-08-20T10:46:21;23.80;99.90
11532;DHT22;5822;51.000;5.874;2023-08-20T10:51:25;23.90;99.90
11532;DHT22;5822;51.000;5.874;2023-08-20T10:56:46;23.90;99.90
11532;DHT22;5822;51.000;5.874;2023-08-20T11:01:40;23.80;99.90
11532;DHT22;5822;51.000;5.874;2023-08-20T11:04:09;23.90;99.90
11532;DHT22;5822;51.000;5.874;2023-08-20T11:06:34;23.90;99.90
11532;DHT22;5822;51.000;5.874;2023-08-20T11:09:01;23.90;99.90
11532;DHT22;5822;51.000;5.874;2023-08-20T11:11:29;23.80;99.90
11532;DHT22;5822;51.000;5.874;2023-08-20T11:13:55;23.90;99.90
11532;DHT22;5822;51.000;5.874;2023-08-20T11:16:20;24.00;99.90
11532;DHT22;5822;51.000;5.874;2023-08-20T11:18:46;24.00;99.90
11532;DHT22;5822;51.000;5.874;2023-08-20T11:21:12;24.10;99.90
11532;DHT22;5822;51.000;5.874;2023-08-20T11:23:39;24.00;99.90
11532;DHT22;5822;51.000;5.874;2023-08-20T11:26:07;24.00;99.90
11532;DHT22;5822;51.000;5.874;2023-08-20T11:28:33;23.90;99.90
11532;DHT22;5822;51.000;5.874;2023-08-20T11:31:01;23.90;99.90
11532;DHT22;5822;51.000;5.874;2023-08-20T11:33:27;23.90;99.90
11532;DHT22;5822;51.000;5.874;2023-08-20T11:35:54;23.90;99.90
11532;DHT22;5822;51.000;5.874;2023-08-20T11:38:22;23.90;99.90
11532;DHT22;5822;51.000;5.874;2023-08-20T11:40:48;24.00;99.90
11532;DHT22;5822;51.000;5.874;2023-08-20T11:43:13;23.90;99.90
11532;DHT22;5822;51.000;5.874;2023-08-20T11:45:46;23.90;99.90
11532;DHT22;5822;51.000;5.874;2023-08-20T11:48:13;23.80;99.90
11532;DHT22;5822;51.000;5.874;2023-08-20T11:50:39;23.80;99.90
11532;DHT22;5822;51.000;5.874;2023-08-20T11:53:06;23.70;99.90
11532;DHT22;5822;51.000;5.874;2023-08-20T11:55:32;23.70;99.90
11532;DHT22;5822;51.000;5.874;2023-08-20T11:57:57;23.50;99.90
11532;DHT22;5822;51.000;5.874;2023-08-20T12:00:28;23.50;99.90
11532;DHT22;5822;51.000;5.874;2023-08-20T12:02:54;23.50;99.90
11532;DHT22;5822;51.000;5.874;2023-08-20T12:05:27;23.50;99.90
11532;DHT22;5822;51.000;5.874;2023-08-20T12:07:57;23.60;99.90
11532;DHT22;5822;51.000;5.874;2023-08-20T12:10:29;23.60;99.90
11532;DHT22;5822;51.000;5.874;2023-08-20T12:12:57;23.70;99.90
11532;DHT22;5822;51.000;5.874;2023-08-20T12:15:24;23.70;99.90
11532;DHT22;5822;51.000;5.874;2023-08-20T12:20:22;23.80;99.90
11532;DHT22;5822;51.000;5.874;2023-08-20T12:22:48;23.80;99.90
11532;DHT22;5822;51.000;5.874;2023-08-20T12:25:14;23.70;99.90
11532;DHT22;5822;51.000;5.874;2023-08-20T12:27:41;23.70;99.90
11532;DHT22;5822;51.000;5.874;2023-08-20T12:30:07;23.60;99.90
11532;DHT22;5822;51.000;5.874;2023-08-20T12:32:33;23.60;99.90
11532;DHT22;5822;51.000;5.874;2023-08-20T12:34:58;23.60;99.90
11532;DHT22;5822;51.000;5.874;2023-08-20T12:37:24;23.70;99.90
11532;DHT22;5822;51.000;5.874;2023-08-20T12:39:49;23.70;99.90
11532;DHT22;5822;51.000;5.874;2023-08-20T12:42:15;23.70;99.90
11532;DHT22;5822;51.000;5.874;2023-08-20T12:44:41;23.70;99.90
11532;DHT22;5822;51.000;5.874;2023-08-20T12:47:06;23.70;99.90
11532;DHT22;5822;51.000;5.874;2023-08-20T12:49:32;23.60;99.90
11532;DHT22;5822;51.000;5.874;2023-08-20T12:51:57;23.60;99.90
11532;DHT22;5822;51.000;5.874;2023-08-20T12:54:23;23.60;99.90
11532;DHT22;5822;51.000;5.874;2023-08-20T12:56:49;23.60;99.90
11532;DHT22;5822;51.000;5.874;2023-08-20T12:59:14;23.60;99.90
11532;DHT22;5822;51.000;5.874;2023-08-20T13:01:40;23.70;99.90
11532;DHT22;5822;51.000;5.874;2023-08-20T13:04:06;23.80;99.90
11532;DHT22;5822;51.000;5.874;2023-08-20T13:06:32;23.80;99.90
11532;DHT22;5822;51.000;5.874;2023-08-20T13:08:58;23.80;99.90
11532;DHT22;5822;51.000;5.874;2023-08-20T13:11:25;23.80;99.90
11532;DHT22;5822;51.000;5.874;2023-08-20T13:13:51;23.80;99.90
11532;DHT22;5822;51.000;5.874;2023-08-20T13:16:19;23.90;99.90
11532;DHT22;5822;51.000;5.874;2023-08-20T13:18:45;23.90;99.90
11532;DHT22;5822;51.000;5.874;2023-08-20T13:21:11;23.90;99.90
11532;DHT22;5822;51.000;5.874;2023-08-20T13:23:36;23.90;99.90
11532;DHT22;5822;51.000;5.874;2023-08-20T13:26:02;24.10;99.90
11532;DHT22;5822;51.000;5.874;2023-08-20T13:28:28;24.10;99.90
11532;DHT22;5822;51.000;5.874;2023-08-20T13:30:54;24.10;99.90
11532;DHT22;5822;51.000;5.874;2023-08-20T13:33:19;24.10;99.90
11532;DHT22;5822;51.000;5.874;2023-08-20T13:35:45;24.10;99.90
11532;DHT22;5822;51.000;5.874;2023-08-20T13:38:11;24.10;99.90
11532;DHT22;5822;51.000;5.874;2023-08-20T13:40:37;24.10;99.90
11532;DHT22;5822;51.000;5.874;2023-08-20T13:43:03;24.20;99.90
11532;DHT22;5822;51.000;5.874;2023-08-20T13:45:28;24.40;99.90
11532;DHT22;5822;51.000;5.874;2023-08-20T13:47:54;24.40;99.90
11532;DHT22;5822;51.000;5.874;2023-08-20T13:50:20;24.40;99.90
11532;DHT22;5822;51.000;5.874;2023-08-20T13:52:46;24.50;99.90
11532;DHT22;5822;51.000;5.874;2023-08-20T13:55:12;24.50;99.90
11532;DHT22;5822;51.000;5.874;2023-08-20T13:57:38;24.60;99.90
11532;DHT22;5822;51.000;5.874;2023-08-20T14:00:04;24.60;99.90
11532;DHT22;5822;51.000;5.874;2023-08-20T14:02:35;24.50;99.90
11532;DHT22;5822;51.000;5.874;2023-08-20T14:05:01;24.50;99.90
11532;DHT22;5822;51.000;5.874;2023-08-20T14:07:26;24.50;99.90
11532;DHT22;5822;51.000;5.874;2023-08-20T14:09:53;24.60;99.90
11532;DHT22;5822;51.000;5.874;2023-08-20T14:12:18;24.50;99.90
11532;DHT22;5822;51.000;5.874;2023-08-20T14:14:45;24.40;99.90
11532;DHT22;5822;51.000;5.874;2023-08-20T14:17:11;24.40;99.90
11532;DHT22;5822;51.000;5.874;2023-08-20T14:19:36;24.20;99.90
11532;DHT22;5822;51.000;5.874;2023-08-20T14:22:02;24.20;99.90
11532;DHT22;5822;51.000;5.874;2023-08-20T14:24:28;24.10;99.90
11532;DHT22;5822;51.000;5.874;2023-08-20T14:26:53;24.10;99.90
11532;DHT22;5822;51.000;5.874;2023-08-20T14:29:19;24.10;99.90
11532;DHT22;5822;51.000;5.874;2023-08-20T14:31:45;24.00;99.90
11532;DHT22;5822;51.000;5.874;2023-08-20T14:34:10;24.10;99.90
11532;DHT22;5822;51.000;5.874;2023-08-20T14:36:36;24.10;99.90
11532;DHT22;5822;51.000;5.874;2023-08-20T14:39:01;24.10;99.90
11532;DHT22;5822;51.000;5.874;2023-08-20T14:41:28;24.10;99.90
11532;DHT22;5822;51.000;5.874;2023-08-20T14:43:54;24.10;99.90
11532;DHT22;5822;51.000;5.874;2023-08-20T14:46:19;24.10;99.90
11532;DHT22;5822;51.000;5.874;2023-08-20T14:48:45;24.30;99.90
11532;DHT22;5822;51.000;5.874;2023-08-20T14:51:11;24.20;99.90
11532;DHT22;5822;51.000;5.874;2023-08-20T14:53:38;24.30;99.90
11532;DHT22;5822;51.000;5.874;2023-08-20T14:56:03;24.20;99.90
11532;DHT22;5822;51.000;5.874;2023-08-20T14:58:29;24.20;99.90
11532;DHT22;5822;51.000;5.874;2023-08-20T15:00:55;24.20;99.90
11532;DHT22;5822;51.000;5.874;2023-08-20T15:03:21;24.10;99.90
11532;DHT22;5822;51.000;5.874;2023-08-20T15:05:47;24.10;99.90
11532;DHT22;5822;51.000;5.874;2023-08-20T15:08:15;24.20;99.90
11532;DHT22;5822;51.000;5.874;2023-08-20T15:10:41;24.20;99.90
11532;DHT22;5822;51.000;5.874;2023-08-20T15:13:06;24.20;99.90
11532;DHT22;5822;51.000;5.874;2023-08-20T15:15:32;24.30;99.90
11532;DHT22;5822;51.000;5.874;2023-08-20T15:17:58;24.30;99.90
11532;DHT22;5822;51.000;5.874;2023-08-20T15:20:23;24.30;99.90
11532;DHT22;5822;51.000;5.874;2023-08-20T15:22:49;24.20;99.90
11532;DHT22;5822;51.000;5.874;2023-08-20T15:25:15;24.30;99.90
11532;DHT22;5822;51.000;5.874;2023-08-20T15:27:40;24.30;99.90
11532;DHT22;5822;51.000;5.874;2023-08-20T15:30:07;24.30;99.90
11532;DHT22;5822;51.000;5.874;2023-08-20T15:32:33;24.30;99.90
11532;DHT22;5822;51.000;5.874;2023-08-20T15:34:59;24.40;99.90
11532;DHT22;5822;51.000;5.874;2023-08-20T15:37:27;24.40;99.90
11532;DHT22;5822;51.000;5.874;2023-08-20T15:39:53;24.40;99.90
11532;DHT22;5822;51.000;5.874;2023-08-20T15:42:18;24.40;99.90
11532;DHT22;5822;51.000;5.874;2023-08-20T15:44:44;24.40;99.90
11532;DHT22;5822;51.000;5.874;2023-08-20T15:47:10;24.40;99.90
11532;DHT22;5822;51.000;5.874;2023-08-20T15:49:35;24.40;99.90
11532;DHT22;5822;51.000;5.874;2023-08-20T15:52:01;24.30;99.90
11532;DHT22;5822;51.000;5.874;2023-08-20T15:54:28;24.30;99.90
11532;DHT22;5822;51.000;5.874;2023-08-20T15:56:55;24.30;99.90
11532;DHT22;5822;51.000;5.874;2023-08-20T15:59:21;24.20;99.90
11532;DHT22;5822;51.000;5.874;2023-08-20T16:01:46;24.10;99.90
11532;DHT22;5822;51.000;5.874;2023-08-20T16:04:13;24.10;99.90
11532;DHT22;5822;51.000;5.874;2023-08-20T16:06:39;24.10;99.90
11532;DHT22;5822;51.000;5.874;2023-08-20T16:09:04;24.10;99.90